Time;durP1;ratioP1;P1;durP2;ratioP2;P2;SDS_P1;SDS_P2;PMS_P1;PMS_P2;Temp;Humidity;BMP_temperature;BMP_pressure;BME280_temperature;BME280_humidity;BME280_pressure;Samples;Min_cycle;Max_cycle;Signal;HPM_P1;HPM_P2
2023/12/15 00:00:41;;;;;;;20.48;12.13;;;;;;;11.02;85.88;99466.63;1739951;80;21861;-90
2023/12/15 00:03:47;;;;;;;18.52;11.83;;;;;;;11.02;85.32;99468.84;1753803;80;21378;-88
2023/12/15 00:06:54;;;;;;;21.05;11.63;;;;;;;11.28;85.01;99470.05;1747678;80;21295;-89
2023/12/15 00:09:59;;;;;;;23.75;12.63;;;;;;;11.32;84.43;99470.81;1748836;80;21300;-87
2023/12/15 00:13:06;;;;;;;21.33;11.93;;;;;;;10.99;85.14;99465.13;1746821;80;21941;-89
2023/12/15 00:16:13;;;;;;;24.25;13.58;;;;;;;11.22;84.39;99464.86;1748160;81;21276;-89
2023/12/15 00:19:20;;;;;;;23.18;12.28;;;;;;;10.95;84.63;99472.88;1766717;80;21768;-91
2023/12/15 00:22:27;;;;;;;15.60;11.33;;;;;;;11.35;83.76;99475.05;1759622;81;21880;-88
2023/12/15 00:25:33;;;;;;;18.62;12.10;;;;;;;11.13;85.07;99475.64;1758868;80;21300;-87
2023/12/15 00:28:44;;;;;;;22.82;11.57;;;;;;;11.25;84.64;99480.36;1694662;80;21718;-88
2023/12/15 00:31:51;;;;;;;17.95;12.13;;;;;;;11.33;85.01;99477.97;1751207;80;21847;-87
2023/12/15 00:34:56;;;;;;;20.48;10.40;;;;;;;11.24;84.06;99477.80;1725931;81;21294;-88
2023/12/15 00:38:03;;;;;;;16.87;10.50;;;;;;;11.17;84.84;99469.56;1716778;80;21906;-91
2023/12/15 00:41:09;;;;;;;20.25;10.30;;;;;;;11.31;84.97;99463.65;1723255;81;21341;-90
2023/12/15 00:44:15;;;;;;;16.73;9.75;;;;;;;11.36;84.36;99471.27;1719686;81;21331;-88
2023/12/15 00:47:22;;;;;;;20.32;10.03;;;;;;;11.05;85.14;99467.05;1722151;81;21852;-88
2023/12/15 00:50:28;;;;;;;16.65;10.20;;;;;;;10.41;87.84;99464.44;1724175;81;21831;-88
2023/12/15 00:53:35;;;;;;;17.90;11.10;;;;;;;10.72;88.08;99461.33;1698883;83;21319;-87
2023/12/15 00:56:42;;;;;;;16.45;10.53;;;;;;;10.72;87.95;99464.06;1725260;81;21860;-87
2023/12/15 00:59:48;;;;;;;14.13;9.63;;;;;;;11.09;86.95;99468.34;1708333;82;21349;-87
2023/12/15 01:02:56;;;;;;;14.55;8.80;;;;;;;10.97;87.43;99472.70;1704337;82;21377;-88
2023/12/15 01:06:04;;;;;;;15.08;9.38;;;;;;;11.23;86.60;99475.59;1716688;81;21361;-90
2023/12/15 01:09:15;;;;;;;13.35;9.03;;;;;;;11.37;85.57;99473.78;1728462;82;21834;-87
2023/12/15 01:12:22;;;;;;;16.20;8.10;;;;;;;11.67;83.85;99474.91;1737085;80;21879;-90
2023/12/15 01:15:28;;;;;;;14.18;8.35;;;;;;;11.41;84.55;99473.70;1731375;80;21294;-87
2023/12/15 01:18:35;;;;;;;12.05;7.50;;;;;;;11.70;83.91;99470.38;1725410;81;21302;-88
2023/12/15 01:21:42;;;;;;;14.87;8.93;;;;;;;11.72;83.69;99461.44;1719257;81;21196;-90
2023/12/15 01:24:49;;;;;;;13.58;7.62;;;;;;;11.37;84.53;99462.83;1719579;81;21302;-89
2023/12/15 01:27:55;;;;;;;12.40;9.38;;;;;;;11.23;85.38;99463.28;1718895;81;21211;-91
2023/12/15 01:31:02;;;;;;;13.90;9.10;;;;;;;11.64;84.75;99463.82;1718149;80;21213;-87
2023/12/15 01:34:08;;;;;;;11.18;7.75;;;;;;;11.95;82.85;99472.08;1724234;81;21876;-90
2023/12/15 01:37:16;;;;;;;12.98;7.90;;;;;;;11.80;83.08;99471.36;1727700;82;21319;-91
2023/12/15 01:40:20;;;;;;;10.88;7.22;;;;;;;12.10;82.00;99472.78;1727347;80;21298;-91
2023/12/15 01:43:26;;;;;;;14.38;8.20;;;;;;;11.81;83.31;99475.29;1730105;81;21309;-88
2023/12/15 01:46:33;;;;;;;10.53;6.85;;;;;;;11.81;83.15;99467.06;1735103;80;21331;-88
2023/12/15 01:49:39;;;;;;;11.20;7.33;;;;;;;11.42;84.62;99465.81;1724023;82;21875;-88
2023/12/15 01:52:47;;;;;;;8.68;6.47;;;;;;;11.97;83.38;99446.70;1711654;82;21353;-88
2023/12/15 01:55:53;;;;;;;8.90;6.60;;;;;;;11.87;82.53;99443.51;1706885;82;21357;-88
2023/12/15 01:59:00;;;;;;;9.00;6.22;;;;;;;12.16;82.24;99456.02;1720529;81;21335;-91
2023/12/15 02:02:06;;;;;;;9.63;6.72;;;;;;;12.12;81.77;99450.10;1718442;82;21853;-92
2023/12/15 02:05:14;;;;;;;8.95;6.58;;;;;;;12.02;82.32;99446.92;1730013;81;21316;-91
2023/12/15 02:08:20;;;;;;;10.63;6.42;;;;;;;11.60;83.30;99455.69;1716496;82;21213;-88
2023/12/15 02:11:27;;;;;;;13.45;7.85;;;;;;;11.80;83.00;99460.41;1722341;80;21315;-89
2023/12/15 02:14:34;;;;;;;11.78;8.75;;;;;;;11.87;82.87;99469.02;1735692;81;21316;-88
2023/12/15 02:17:40;;;;;;;11.15;8.85;;;;;;;11.75;83.77;99477.45;1720703;81;21316;-91
2023/12/15 02:20:47;;;;;;;11.50;7.40;;;;;;;11.67;84.55;99491.34;1716531;82;21335;-90
2023/12/15 02:23:53;;;;;;;5.80;3.90;;;;;;;11.14;85.61;99489.64;1721510;82;21316;-88
2023/12/15 02:27:00;;;;;;;4.90;4.00;;;;;;;11.76;82.64;99507.91;1726422;82;21347;-89
2023/12/15 02:30:07;;;;;;;5.60;4.65;;;;;;;10.72;79.97;99529.70;1725698;82;21316;-90
2023/12/15 02:33:14;;;;;;;6.62;5.03;;;;;;;10.50;78.51;99530.25;1735542;82;21319;-88
2023/12/15 02:36:31;;;;;;;8.80;5.95;;;;;;;10.06;77.87;99538.53;1721668;81;21879;-90
2023/12/15 02:39:36;;;;;;;10.72;7.10;;;;;;;9.86;78.33;99552.80;1711775;82;21565;-88
2023/12/15 02:42:42;;;;;;;14.55;11.10;;;;;;;9.05;77.97;99564.61;1727579;81;21279;-92
2023/12/15 02:45:57;;;;;;;21.12;13.55;;;;;;;8.55;78.21;99564.16;1735374;81;21216;-91
2023/12/15 02:49:09;;;;;;;24.80;17.40;;;;;;;8.68;78.46;99573.94;1703362;80;21224;-89
2023/12/15 02:52:20;;;;;;;37.17;22.80;;;;;;;8.35;78.64;99592.36;1727236;81;21188;-89
2023/12/15 02:55:26;;;;;;;39.13;24.50;;;;;;;8.31;78.86;99584.72;1716912;81;21342;-88
2023/12/15 02:58:32;;;;;;;43.87;26.00;;;;;;;8.43;77.99;99584.70;1719252;81;21525;-92
2023/12/15 03:01:38;;;;;;;46.73;27.40;;;;;;;8.36;78.13;99600.89;1734385;81;21876;-88
2023/12/15 03:04:45;;;;;;;47.30;28.70;;;;;;;8.16;78.27;99606.44;1728438;82;21278;-92
2023/12/15 03:07:54;;;;;;;39.70;24.80;;;;;;;8.15;78.42;99626.53;1725822;81;21350;-89
2023/12/15 03:11:19;;;;;;;29.90;18.20;;;;;;;7.92;78.79;99626.45;1729069;81;21205;-92
2023/12/15 03:15:02;;;;;;;;;;;;;;;;;;;;;
2023/12/15 03:18:36;;;;;;;;;;;;;;;;;;;;;
2023/12/15 03:21:44;;;;;;;19.55;13.50;;;;;;;8.23;76.15;99621.02;1586934;87;21354;-91
2023/12/15 03:25:23;;;;;;;;;;;;;;;;;;;;;
2023/12/15 03:28:33;;;;;;;26.70;16.70;;;;;;;8.00;75.85;99635.97;1725830;81;21225;-91
2023/12/15 03:32:07;;;;;;;32.17;19.53;;;;;;;7.93;75.66;99650.78;1739473;82;21319;-91
2023/12/15 03:35:21;;;;;;;38.85;21.97;;;;;;;7.49;77.16;99660.43;1725439;82;21212;-92
2023/12/15 03:38:34;;;;;;;37.45;22.35;;;;;;;7.55;76.19;99665.17;1688692;83;21250;-91
2023/12/15 03:41:44;;;;;;;29.85;20.15;;;;;;;7.55;75.37;99668.74;1719909;82;21350;-91
2023/12/15 03:44:53;;;;;;;38.25;23.80;;;;;;;7.39;75.00;99689.19;1717941;82;21845;-90
2023/12/15 03:48:08;;;;;;;32.42;21.68;;;;;;;7.66;74.06;99687.94;1719757;82;21298;-88
2023/12/15 03:51:18;;;;;;;28.57;18.85;;;;;;;7.03;75.31;99703.61;1717123;82;21194;-91
2023/12/15 03:54:39;;;;;;;36.60;24.57;;;;;;;7.18;74.71;99699.20;1716244;82;21946;-90
2023/12/15 03:57:51;;;;;;;49.23;29.90;;;;;;;7.18;73.79;99718.23;1725443;82;21320;-91
2023/12/15 04:01:29;;;;;;;;;;;;;;;;;;;;;
2023/12/15 04:04:35;;;;;;;58.45;32.65;;;;;;;7.10;74.30;99711.42;1681230;82;22120;-90
2023/12/15 04:07:53;;;;;;;40.78;25.77;;;;;;;7.15;73.84;99726.24;1707986;82;21206;-89
2023/12/15 04:11:10;;;;;;;35.70;21.07;;;;;;;6.69;75.28;99729.03;1718575;82;21211;-91
2023/12/15 04:14:25;;;;;;;31.97;20.08;;;;;;;6.98;74.95;99725.02;1711783;82;21195;-91
2023/12/15 04:17:44;;;;;;;32.40;19.20;;;;;;;6.53;75.10;99741.19;1715294;82;21318;-90
2023/12/15 04:20:52;;;;;;;30.17;19.15;;;;;;;6.19;76.46;99753.44;1709228;82;21234;-90
2023/12/15 04:24:14;;;;;;;;;;;;;;;;;;;;;
2023/12/15 04:27:13;;;;;;;22.65;15.28;;;;;;;6.59;75.28;99755.50;1729970;82;21303;-92
2023/12/15 04:30:24;;;;;;;24.12;15.30;;;;;;;6.59;75.47;99760.94;1735621;82;21946;-91
2023/12/15 04:33:42;;;;;;;25.62;16.75;;;;;;;6.61;74.48;99761.61;1716105;82;21247;-91
2023/12/15 04:36:49;;;;;;;27.48;16.10;;;;;;;6.37;75.46;99765.92;1732676;81;21851;-90
2023/12/15 04:39:59;;;;;;;26.75;16.30;;;;;;;6.54;74.81;99756.47;1712794;82;21334;-91
2023/12/15 04:43:21;;;;;;;26.33;16.95;;;;;;;6.04;76.40;99764.05;1722342;82;21306;-90
2023/12/15 04:46:36;;;;;;;29.15;17.75;;;;;;;5.93;76.82;99768.38;1717199;82;21354;-92
2023/12/15 04:49:45;;;;;;;26.85;16.87;;;;;;;6.48;75.08;99766.65;1718456;82;21291;-90
2023/12/15 04:52:55;;;;;;;23.92;16.77;;;;;;;6.32;75.74;99757.42;1708477;82;21290;-91
2023/12/15 04:56:04;;;;;;;26.05;17.48;;;;;;;6.14;76.02;99764.28;1725713;82;21317;-90
2023/12/15 04:59:18;;;;;;;32.40;19.57;;;;;;;6.29;74.30;99763.16;1724805;82;21338;-91
2023/12/15 05:02:25;;;;;;;32.50;19.80;;;;;;;6.37;74.22;99770.00;1725307;82;21315;-90
2023/12/15 05:05:31;;;;;;;32.60;19.67;;;;;;;6.48;73.99;99768.86;1720364;82;21338;-90
2023/12/15 05:08:45;;;;;;;41.50;23.87;;;;;;;6.25;74.55;99782.66;1718245;81;21302;-91
2023/12/15 05:11:51;;;;;;;41.37;24.23;;;;;;;6.20;75.10;99780.42;1718979;82;21298;-90
2023/12/15 05:15:03;;;;;;;48.23;26.65;;;;;;;6.87;72.84;99766.47;1724354;82;21847;-91
2023/12/15 05:18:11;;;;;;;47.15;26.17;;;;;;;6.42;74.28;99778.17;1717586;82;21300;-90
2023/12/15 05:21:27;;;;;;;;;;;;;;;;;;;;;
2023/12/15 05:24:32;;;;;;;47.30;27.58;;;;;;;6.03;74.87;99791.71;1727840;81;21718;-90
2023/12/15 05:27:42;;;;;;;43.68;24.95;;;;;;;6.31;74.30;99801.05;1721558;82;21363;-91
2023/12/15 05:30:49;;;;;;;38.70;22.95;;;;;;;6.08;74.86;99825.17;1721433;82;21882;-90
2023/12/15 05:33:58;;;;;;;32.73;20.20;;;;;;;5.89;75.10;99842.48;1718474;82;21293;-90
2023/12/15 05:37:10;;;;;;;42.03;25.20;;;;;;;6.13;73.82;99836.41;1718010;82;21313;-91
2023/12/15 05:40:20;;;;;;;41.70;23.30;;;;;;;5.99;73.64;99847.34;1717694;82;21321;-91
2023/12/15 05:43:28;;;;;;;48.58;27.62;;;;;;;5.94;73.55;99836.61;1712927;82;21331;-90
2023/12/15 05:46:35;;;;;;;48.08;27.05;;;;;;;6.03;73.08;99837.02;1688185;83;21302;-91
2023/12/15 05:49:50;;;;;;;46.13;22.37;;;;;;;5.20;75.41;99848.10;1688731;84;21374;-91
2023/12/15 05:52:56;;;;;;;31.73;18.57;;;;;;;5.22;75.00;99857.42;1708196;82;21708;-89
2023/12/15 05:56:04;;;;;;;38.63;24.30;;;;;;;5.43;74.46;99860.72;1709441;82;21358;-89
2023/12/15 05:59:10;;;;;;;44.23;25.60;;;;;;;5.19;74.35;99868.09;1679897;83;21867;-89
2023/12/15 06:02:19;;;;;;;43.78;24.43;;;;;;;5.40;73.75;99865.08;1724226;82;21327;-91
2023/12/15 06:05:28;;;;;;;57.20;27.60;;;;;;;5.42;74.00;99871.73;1687284;83;21875;-91
2023/12/15 06:08:40;;;;;;;51.92;26.40;;;;;;;5.57;73.13;99876.96;1722345;82;21305;-91
2023/12/15 06:11:49;;;;;;;55.08;28.50;;;;;;;5.28;73.87;99886.67;1678335;83;21278;-90
2023/12/15 06:14:57;;;;;;;52.43;26.75;;;;;;;5.40;73.77;99916.62;1694129;83;21321;-90
2023/12/15 06:18:03;;;;;;;25.82;14.80;;;;;;;5.30;73.73;99912.61;1671737;84;21866;-90
2023/12/15 06:21:10;;;;;;;28.00;17.25;;;;;;;5.12;71.95;99915.28;1711822;82;21596;-91
2023/12/15 06:24:20;;;;;;;32.20;19.80;;;;;;;5.37;71.43;99906.09;1692778;83;21355;-91
2023/12/15 06:27:26;;;;;;;36.30;20.85;;;;;;;5.02;71.44;99909.56;1706772;82;21857;-90
2023/12/15 06:30:32;;;;;;;33.73;19.27;;;;;;;5.11;70.94;99921.71;1684484;84;22445;-91
2023/12/15 06:33:39;;;;;;;32.90;19.45;;;;;;;4.74;71.49;99920.88;1712073;82;21349;-90
2023/12/15 06:36:48;;;;;;;43.52;21.02;;;;;;;4.76;71.35;99912.97;1724383;82;21325;-89
2023/12/15 06:39:57;;;;;;;20.93;12.27;;;;;;;4.93;71.08;99921.30;1723916;82;21307;-90
2023/12/15 06:43:04;;;;;;;19.00;12.35;;;;;;;5.38;69.70;99928.98;1732032;82;21915;-91
2023/12/15 06:46:11;;;;;;;20.60;11.83;;;;;;;5.01;68.69;99938.53;1682023;84;21825;-90
2023/12/15 06:49:30;;;;;;;20.00;11.45;;;;;;;5.18;67.88;99938.75;1688208;84;21353;-90
2023/12/15 06:52:40;;;;;;;26.97;14.85;;;;;;;5.19;67.13;99939.95;1676849;84;21667;-90
2023/12/15 06:55:52;;;;;;;45.55;24.30;;;;;;;5.15;66.84;99945.31;1687148;84;21338;-91
2023/12/15 06:58:59;;;;;;;41.37;23.62;;;;;;;5.23;66.40;99941.36;1686057;84;21884;-90
2023/12/15 07:02:05;;;;;;;51.85;23.07;;;;;;;5.28;65.59;99943.11;1687257;84;21891;-90
2023/12/15 07:05:15;;;;;;;49.18;23.60;;;;;;;5.01;66.48;99949.38;1689632;84;21729;-91
2023/12/15 07:08:22;;;;;;;35.85;19.42;;;;;;;4.85;67.69;99962.22;1684521;84;22070;-91
2023/12/15 07:11:29;;;;;;;27.22;14.47;;;;;;;4.29;68.68;99992.84;1683000;84;21365;-89
2023/12/15 07:14:37;;;;;;;22.98;12.50;;;;;;;4.45;68.62;99996.30;1675965;82;21328;-90
2023/12/15 07:17:46;;;;;;;15.43;8.53;;;;;;;4.77;67.46;100010.87;1626319;83;21785;-90
2023/12/15 07:20:56;;;;;;;16.20;9.85;;;;;;;5.23;63.54;100006.44;1699964;82;21302;-90
2023/12/15 07:24:04;;;;;;;21.15;11.25;;;;;;;4.86;64.04;100025.40;1701614;82;21227;-89
2023/12/15 07:27:14;;;;;;;21.60;11.85;;;;;;;4.71;65.38;99990.29;1699878;82;21867;-90
2023/12/15 07:30:21;;;;;;;33.78;15.20;;;;;;;4.59;65.40;99999.06;1714147;82;21800;-89
2023/12/15 07:33:29;;;;;;;34.18;17.55;;;;;;;4.57;65.31;100017.34;1689422;82;21740;-89
2023/12/15 07:36:36;;;;;;;23.47;12.45;;;;;;;4.51;65.02;100023.31;1677605;82;21337;-90
2023/12/15 07:39:42;;;;;;;22.50;9.65;;;;;;;4.09;66.65;100039.38;1685244;84;21323;-89
2023/12/15 07:42:49;;;;;;;21.48;9.75;;;;;;;4.49;65.32;100056.47;1710235;82;21343;-89
2023/12/15 07:45:55;;;;;;;24.07;12.23;;;;;;;4.20;64.80;100051.91;1697533;82;21327;-90
2023/12/15 07:49:01;;;;;;;28.75;12.70;;;;;;;4.32;64.67;100070.21;1728303;82;21316;-89
2023/12/15 07:52:08;;;;;;;29.30;14.90;;;;;;;4.12;65.11;100061.73;1679576;84;21350;-90
2023/12/15 07:55:14;;;;;;;28.85;14.33;;;;;;;3.46;66.07;100078.52;1693326;83;21895;-89
2023/12/15 07:58:21;;;;;;;18.42;10.43;;;;;;;3.29;67.25;100083.58;1694600;82;21361;-88
2023/12/15 08:01:28;;;;;;;18.20;9.33;;;;;;;3.88;65.51;100117.59;1685763;82;21345;-90
2023/12/15 08:04:33;;;;;;;15.80;7.62;;;;;;;4.39;63.09;100113.84;1696252;83;21343;-90
2023/12/15 08:07:43;;;;;;;19.03;8.80;;;;;;;4.43;61.30;100108.00;1685328;82;21350;-90
2023/12/15 08:10:51;;;;;;;21.70;13.45;;;;;;;4.29;61.73;100120.11;1709069;82;21879;-88
2023/12/15 08:13:58;;;;;;;23.22;11.95;;;;;;;4.25;61.46;100106.48;1709187;83;21892;-89
2023/12/15 08:17:06;;;;;;;24.63;12.47;;;;;;;3.83;62.59;100114.80;1722551;82;21304;-89
2023/12/15 08:20:14;;;;;;;26.30;10.65;;;;;;;4.03;62.50;100118.91;1723152;82;21383;-88
2023/12/15 08:23:20;;;;;;;22.82;11.57;;;;;;;4.13;62.42;100134.66;1703207;82;21344;-90
2023/12/15 08:26:29;;;;;;;15.05;9.23;;;;;;;3.99;63.23;100131.00;1675399;83;21313;-89
2023/12/15 08:29:35;;;;;;;15.72;8.05;;;;;;;4.09;62.46;100154.41;1667115;85;21864;-89
2023/12/15 08:32:41;;;;;;;21.60;11.40;;;;;;;4.11;61.77;100146.15;1673106;83;21923;-89
2023/12/15 08:35:48;;;;;;;32.78;17.05;;;;;;;4.41;60.94;100137.06;1689300;83;21392;-89
2023/12/15 08:38:54;;;;;;;52.30;17.20;;;;;;;4.18;59.69;100173.50;1688904;84;21337;-89
2023/12/15 08:42:01;;;;;;;31.60;13.75;;;;;;;4.14;59.68;100166.19;1716220;83;21348;-90
2023/12/15 08:45:06;;;;;;;28.83;12.23;;;;;;;4.06;60.04;100145.20;1715657;82;21360;-89
2023/12/15 08:48:14;;;;;;;39.08;13.98;;;;;;;3.85;59.62;100141.71;1702088;82;21345;-89
2023/12/15 08:51:21;;;;;;;27.90;12.07;;;;;;;4.15;59.65;100147.58;1718669;82;21889;-89
2023/12/15 08:54:28;;;;;;;24.20;12.03;;;;;;;4.32;59.16;100150.95;1695986;82;21320;-89
2023/12/15 08:57:34;;;;;;;20.27;10.63;;;;;;;4.16;59.09;100148.44;1723514;82;21336;-89
2023/12/15 09:00:41;;;;;;;24.12;11.60;;;;;;;3.99;59.86;100168.89;1716594;83;21308;-89
2023/12/15 09:03:47;;;;;;;17.52;8.83;;;;;;;4.40;58.57;100169.71;1719209;82;21323;-89
2023/12/15 09:06:54;;;;;;;16.42;8.08;;;;;;;4.14;58.50;100149.94;1715692;83;21293;-89
2023/12/15 09:10:01;;;;;;;22.13;8.00;;;;;;;4.24;59.16;100183.30;1713341;82;21320;-90
2023/12/15 09:13:09;;;;;;;23.73;8.85;;;;;;;4.66;58.63;100191.22;1730575;82;21306;-90
2023/12/15 09:16:14;;;;;;;23.38;8.30;;;;;;;4.79;57.34;100167.38;1718733;82;21320;-89
2023/12/15 09:19:22;;;;;;;21.10;7.83;;;;;;;4.56;57.37;100198.45;1717862;82;21297;-88
2023/12/15 09:22:29;;;;;;;23.77;8.58;;;;;;;4.52;57.35;100198.40;1717934;82;21340;-89
2023/12/15 09:25:36;;;;;;;26.07;9.28;;;;;;;4.60;57.50;100195.82;1705910;82;21322;-89
2023/12/15 09:28:42;;;;;;;20.15;9.28;;;;;;;4.47;58.05;100199.28;1720483;82;21892;-89
2023/12/15 09:31:49;;;;;;;27.62;10.93;;;;;;;5.48;55.53;100191.21;1705396;82;22030;-88
2023/12/15 09:34:57;;;;;;;28.25;8.43;;;;;;;4.96;56.03;100184.79;1713719;82;21364;-87
2023/12/15 09:38:03;;;;;;;25.57;9.13;;;;;;;4.41;56.87;100186.31;1710378;83;21388;-88
2023/12/15 09:41:10;;;;;;;25.55;7.83;;;;;;;4.67;56.56;100213.23;1707188;83;21370;-88
2023/12/15 09:44:18;;;;;;;33.75;9.08;;;;;;;4.43;57.09;100231.73;1709955;83;21363;-88
2023/12/15 09:47:29;;;;;;;25.27;9.58;;;;;;;4.71;57.25;100201.12;1712009;82;21342;-88
2023/12/15 09:50:36;;;;;;;16.52;8.30;;;;;;;4.12;57.45;100197.08;1700937;82;21344;-87
2023/12/15 09:53:44;;;;;;;26.00;8.60;;;;;;;4.42;56.11;100206.98;1705066;83;21308;-89
2023/12/15 09:56:51;;;;;;;21.23;7.65;;;;;;;4.27;56.76;100207.38;1705012;82;21321;-88
2023/12/15 09:59:57;;;;;;;24.05;7.60;;;;;;;4.82;54.32;100223.16;1701171;83;21826;-89
2023/12/15 10:03:06;;;;;;;18.55;6.45;;;;;;;4.20;55.06;100241.92;1688366;83;21315;-88
2023/12/15 10:06:13;;;;;;;23.95;7.50;;;;;;;4.22;54.68;100253.45;1715784;82;21209;-88
2023/12/15 10:09:22;;;;;;;19.60;6.58;;;;;;;4.44;53.68;100257.31;1723212;82;21351;-88
2023/12/15 10:12:28;;;;;;;23.47;6.25;;;;;;;4.15;54.30;100236.06;1714799;82;21321;-87
2023/12/15 10:22:55;;;;;;;21.97;5.87;;;;;;;4.28;53.19;100264.62;1728222;82;21296;-85
2023/12/15 10:26:03;;;;;;;22.17;6.97;;;;;;;4.02;54.32;100256.09;1726197;82;21340;-86
2023/12/15 10:29:09;;;;;;;24.52;8.28;;;;;;;4.15;53.65;100275.32;1685296;82;21374;-86
2023/12/15 10:32:16;;;;;;;27.80;8.15;;;;;;;4.14;54.11;100285.30;1711561;82;21395;-86
2023/12/15 10:35:28;;;;;;;23.15;7.87;;;;;;;4.24;54.38;100275.36;1711744;82;21384;-87
2023/12/15 10:38:39;;;;;;;15.30;6.17;;;;;;;4.21;54.22;100278.33;1725222;82;21469;-87
2023/12/15 10:41:47;;;;;;;27.85;7.17;;;;;;;4.55;52.52;100305.09;1729670;82;21806;-85
2023/12/15 10:44:54;;;;;;;22.13;5.67;;;;;;;5.15;51.56;100290.17;1730991;82;21364;-86
2023/12/15 10:48:00;;;;;;;19.65;6.60;;;;;;;4.42;52.35;100301.77;1708222;82;21365;-86
2023/12/15 10:51:07;;;;;;;19.35;6.10;;;;;;;4.50;52.33;100292.47;1709757;82;21917;-86
2023/12/15 10:54:15;;;;;;;21.95;6.05;;;;;;;4.32;52.70;100299.88;1707480;82;21345;-85
2023/12/15 10:57:22;;;;;;;25.85;6.05;;;;;;;4.34;53.18;100306.03;1703319;82;21360;-86
2023/12/15 11:00:29;;;;;;;16.67;6.53;;;;;;;4.37;53.47;100304.89;1689815;83;21337;-86
2023/12/15 11:03:35;;;;;;;29.45;7.37;;;;;;;4.97;52.77;100322.03;1692709;83;21360;-85
2023/12/15 11:06:43;;;;;;;21.20;6.03;;;;;;;4.81;52.04;100346.97;1704680;83;21980;-86
2023/12/15 11:09:49;;;;;;;21.02;6.65;;;;;;;5.53;50.66;100339.49;1700191;83;21376;-86
2023/12/15 11:12:58;;;;;;;21.12;6.15;;;;;;;5.43;50.55;100347.63;1702272;83;21620;-85
2023/12/15 11:16:04;;;;;;;32.00;6.78;;;;;;;4.90;51.41;100356.63;1702094;83;21388;-86
2023/12/15 11:19:10;;;;;;;32.17;7.28;;;;;;;4.70;52.22;100341.64;1703362;83;21697;-86
2023/12/15 11:22:18;;;;;;;17.65;6.70;;;;;;;5.13;50.89;100358.11;1704580;83;21955;-87
2023/12/15 11:25:45;;;;;;;25.62;7.05;;;;;;;4.80;51.72;100357.46;1691376;84;21365;-86
2023/12/15 11:28:52;;;;;;;28.50;6.75;;;;;;;4.93;52.16;100361.25;1701908;82;22039;-86
2023/12/15 11:31:59;;;;;;;34.58;7.80;;;;;;;5.28;51.89;100384.32;1727929;82;21340;-87
2023/12/15 11:35:04;;;;;;;34.25;7.45;;;;;;;5.44;50.67;100383.25;1723365;82;21944;-86
2023/12/15 11:38:10;;;;;;;41.73;7.40;;;;;;;5.41;50.88;100367.75;1710352;82;21333;-87
2023/12/15 11:41:18;;;;;;;36.35;7.45;;;;;;;5.58;50.31;100367.05;1686544;83;22056;-87
2023/12/15 11:44:27;;;;;;;38.45;7.97;;;;;;;5.67;50.44;100370.27;1719739;82;21347;-86
2023/12/15 11:47:33;;;;;;;34.85;8.28;;;;;;;5.66;50.62;100363.13;1730375;82;21407;-87
2023/12/15 11:50:43;;;;;;;34.65;7.05;;;;;;;5.48;50.42;100379.77;1730580;82;21408;-85
2023/12/15 11:53:49;;;;;;;39.30;7.72;;;;;;;5.31;50.01;100405.72;1726906;82;21936;-86
2023/12/15 11:56:55;;;;;;;40.67;7.60;;;;;;;5.17;50.37;100392.05;1727188;82;21975;-85
2023/12/15 12:00:02;;;;;;;30.10;8.73;;;;;;;5.03;50.62;100394.66;1716409;83;21336;-86
2023/12/15 12:03:13;;;;;;;29.35;6.83;;;;;;;5.16;50.91;100387.63;1715007;83;21308;-86
2023/12/15 12:06:20;;;;;;;28.07;6.28;;;;;;;4.69;51.74;100399.55;1714488;82;21336;-86
2023/12/15 12:09:24;;;;;;;29.55;6.40;;;;;;;4.98;51.01;100420.47;1716865;82;22272;-85
2023/12/15 12:12:30;;;;;;;18.92;6.55;;;;;;;5.18;49.74;100411.42;1715951;82;21332;-85
2023/12/15 12:15:37;;;;;;;28.15;6.42;;;;;;;5.53;49.32;100427.67;1707299;82;21300;-87
2023/12/15 12:18:44;;;;;;;25.80;6.67;;;;;;;5.69;48.60;100440.17;1711066;83;21355;-87
2023/12/15 12:21:50;;;;;;;20.23;5.85;;;;;;;5.86;48.38;100457.12;1708095;82;21869;-87
2023/12/15 12:24:59;;;;;;;23.87;8.45;;;;;;;5.78;48.87;100453.39;1704666;83;21308;-86
2023/12/15 12:28:05;;;;;;;26.20;7.35;;;;;;;5.27;48.92;100447.20;1705326;83;21300;-86
2023/12/15 12:31:11;;;;;;;33.55;7.05;;;;;;;4.87;50.20;100462.95;1689353;82;21364;-86
2023/12/15 12:34:19;;;;;;;23.57;5.53;;;;;;;5.16;49.72;100469.48;1692332;84;21801;-86
2023/12/15 12:37:26;;;;;;;44.50;7.65;;;;;;;5.09;49.81;100477.33;1699242;82;21328;-86
2023/12/15 12:40:33;;;;;;;37.05;6.62;;;;;;;5.26;49.02;100479.86;1728774;82;21861;-86
2023/12/15 12:43:41;;;;;;;31.73;7.00;;;;;;;5.18;49.10;100479.22;1712207;82;21344;-87
2023/12/15 12:46:47;;;;;;;25.65;6.60;;;;;;;4.61;50.72;100502.31;1708175;83;21791;-87
2023/12/15 12:49:52;;;;;;;32.10;7.35;;;;;;;4.64;50.74;100495.78;1709635;83;21331;-87
2023/12/15 12:52:59;;;;;;;27.05;6.17;;;;;;;4.79;50.10;100503.42;1710040;82;21324;-87
2023/12/15 12:56:06;;;;;;;29.67;6.53;;;;;;;4.58;50.64;100521.56;1712214;82;21296;-87
2023/12/15 12:59:12;;;;;;;24.43;5.75;;;;;;;4.88;50.04;100527.51;1718840;82;21663;-87
2023/12/15 13:02:19;;;;;;;25.40;6.03;;;;;;;4.91;50.42;100508.78;1716697;83;21340;-87
2023/12/15 13:05:26;;;;;;;20.23;5.50;;;;;;;4.65;51.33;100535.42;1712528;83;21352;-87
2023/12/15 13:08:32;;;;;;;27.00;5.67;;;;;;;4.29;51.87;100554.72;1710701;82;21393;-87
2023/12/15 13:11:39;;;;;;;35.95;6.17;;;;;;;4.52;51.75;100562.73;1724411;82;21296;-87
2023/12/15 13:14:46;;;;;;;33.23;5.95;;;;;;;4.59;51.16;100559.35;1710398;82;21830;-87
2023/12/15 13:17:53;;;;;;;33.25;6.90;;;;;;;5.07;51.05;100558.78;1711946;83;21359;-87
2023/12/15 13:20:59;;;;;;;46.37;6.55;;;;;;;5.42;50.37;100563.45;1720028;82;21312;-87
2023/12/15 13:24:05;;;;;;;24.40;5.45;;;;;;;5.63;49.46;100588.64;1719362;82;21313;-87
2023/12/15 13:27:10;;;;;;;37.58;7.05;;;;;;;5.99;48.56;100593.14;1720062;83;21325;-87
2023/12/15 13:30:17;;;;;;;22.37;5.22;;;;;;;6.70;46.97;100603.27;1713826;82;21317;-86
2023/12/15 13:33:23;;;;;;;23.80;6.28;;;;;;;5.59;48.31;100596.70;1710974;83;21320;-87
2023/12/15 13:36:30;;;;;;;25.27;6.33;;;;;;;6.13;47.77;100597.67;1716227;82;21329;-86
2023/12/15 13:39:35;;;;;;;34.63;8.98;;;;;;;6.18;47.78;100611.33;1715716;83;21335;-86
2023/12/15 13:42:42;;;;;;;38.42;9.25;;;;;;;6.39;47.19;100606.11;1718791;82;21288;-85
2023/12/15 13:45:47;;;;;;;41.37;8.73;;;;;;;6.31;46.87;100628.23;1702258;83;21344;-85
2023/12/15 13:48:55;;;;;;;34.08;8.40;;;;;;;6.14;46.90;100636.55;1689533;81;21348;-85
2023/12/15 13:52:02;;;;;;;40.05;10.43;;;;;;;5.54;48.58;100635.59;1726671;81;21346;-85
2023/12/15 13:55:08;;;;;;;32.93;7.92;;;;;;;4.81;49.05;100628.83;1732330;81;21326;-85
2023/12/15 13:58:14;;;;;;;29.27;8.35;;;;;;;4.38;51.06;100628.91;1724195;81;21294;-85
2023/12/15 14:01:21;;;;;;;25.65;7.28;;;;;;;3.95;52.30;100646.48;1728622;81;21368;-84
2023/12/15 14:04:38;;;;;;;44.40;9.53;;;;;;;4.43;51.56;100646.13;1707284;82;21313;-85
2023/12/15 14:07:45;;;;;;;47.48;10.38;;;;;;;5.20;50.08;100638.56;1718380;80;21393;-85
2023/12/15 14:10:52;;;;;;;44.83;10.50;;;;;;;4.95;50.44;100639.84;1718601;81;21319;-85
2023/12/15 14:13:58;;;;;;;39.73;8.33;;;;;;;5.55;49.66;100651.77;1730023;80;21282;-85
2023/12/15 14:17:06;;;;;;;33.35;10.93;;;;;;;5.21;50.21;100668.75;1710118;80;21847;-85
2023/12/15 14:20:13;;;;;;;39.25;9.68;;;;;;;5.53;49.72;100665.09;1724964;81;21314;-87
2023/12/15 14:23:19;;;;;;;47.08;9.13;;;;;;;3.68;53.68;100682.94;1717815;81;21886;-87
2023/12/15 14:26:27;;;;;;;47.43;12.50;;;;;;;3.57;54.59;100691.03;1729291;82;21886;-88
2023/12/15 14:29:33;;;;;;;37.28;11.38;;;;;;;3.72;54.95;100708.77;1730269;82;21282;-87
2023/12/15 14:32:40;;;;;;;47.98;11.33;;;;;;;4.96;52.00;100700.34;1726801;82;22174;-88
2023/12/15 14:35:47;;;;;;;46.70;12.75;;;;;;;4.79;52.02;100693.63;1720325;82;21314;-86
2023/12/15 14:38:54;;;;;;;37.30;12.23;;;;;;;4.35;52.54;100704.50;1731493;81;21294;-85
2023/12/15 14:41:59;;;;;;;41.40;11.90;;;;;;;3.90;54.54;100701.48;1730041;82;21330;-85
2023/12/15 14:45:05;;;;;;;55.40;12.82;;;;;;;4.49;52.89;100705.20;1725098;82;21310;-86
2023/12/15 14:48:12;;;;;;;47.93;14.28;;;;;;;4.52;53.27;100695.48;1733426;82;21342;-86
2023/12/15 14:51:19;;;;;;;46.15;14.68;;;;;;;3.98;54.04;100723.38;1730004;82;21306;-86